createdAt,value
2023-04-01T00:00:01.830Z,94654.03
2023-04-01T00:02:58.356Z,94648.63
2023-04-01T00:05:44.382Z,94645.91
2023-04-01T00:08:30.443Z,94626.91
2023-04-01T00:11:17.070Z,94616.03
2023-04-01T00:14:02.962Z,94622.94
2023-04-01T00:16:51.086Z,94619.78
2023-04-01T00:19:36.633Z,94617.44
2023-04-01T00:22:23.142Z,94608.41
2023-04-01T00:25:09.530Z,94601.06
2023-04-01T00:27:55.499Z,94604.22
2023-04-01T00:30:41.834Z,94605.00
2023-04-01T00:33:28.610Z,94601.06
2023-04-01T00:36:16.910Z,94590.19
2023-04-01T00:39:02.664Z,94590.19
2023-04-01T00:41:48.592Z,94573.81
2023-04-01T00:44:35.493Z,94585.56
2023-04-01T00:47:22.592Z,94580.47
2023-04-01T00:50:08.862Z,94582.41
2023-04-01T00:52:54.930Z,94591.66
2023-04-01T00:55:44.090Z,94585.34
2023-04-01T00:58:32.674Z,94595.50
2023-04-01T01:01:20.678Z,94590.09
2023-04-01T01:04:07.323Z,94598.69
2023-04-01T01:07:21.022Z,94593.25
2023-04-01T01:10:15.930Z,94598.69
2023-04-01T01:13:28.002Z,94589.41
2023-04-01T01:16:26.803Z,94585.56
2023-04-01T01:19:49.358Z,94590.53
2023-04-01T01:22:49.642Z,94583.63
2023-04-01T01:25:54.518Z,94581.00
2023-04-01T01:28:46.592Z,94568.59
2023-04-01T01:31:39.932Z,94562.00
2023-04-01T01:34:32.937Z,94556.22
2023-04-01T01:37:34.545Z,94553.84
2023-04-01T01:40:21.236Z,94550.78
2023-04-01T01:43:11.988Z,94539.59
2023-04-01T01:46:00.941Z,94525.22
2023-04-01T01:48:48.346Z,94531.44
2023-04-01T01:51:35.040Z,94517.78
2023-04-01T01:54:27.305Z,94512.00
2023-04-01T01:57:14.232Z,94516.31
2023-04-01T02:00:18.965Z,94517.44
2023-04-01T02:03:13.878Z,94503.44
2023-04-01T02:06:01.601Z,94509.56
2023-04-01T02:09:08.192Z,94511.84
2023-04-01T02:11:57.720Z,94487.75
2023-04-01T02:14:51.625Z,94499.41
2023-04-01T02:17:44.170Z,94504.03
2023-04-01T02:20:34.126Z,94485.38
2023-04-01T02:23:21.152Z,94469.91
2023-04-01T02:26:09.248Z,94472.94
2023-04-01T02:28:55.675Z,94471.75
2023-04-01T02:31:43.065Z,94474.47
2023-04-01T02:34:29.146Z,94476.81
2023-04-01T02:37:26.374Z,94460.09
2023-04-01T02:40:15.014Z,94464.41
2023-04-01T02:43:00.903Z,94469.03
2023-04-01T02:45:46.799Z,94469.81
2023-04-01T02:48:32.615Z,94451.97
2023-04-01T02:51:18.588Z,94455.09
2023-04-01T02:54:04.877Z,94445.81
2023-04-01T02:56:50.906Z,94448.91
2023-04-01T02:59:36.625Z,94455.09
2023-04-01T03:02:22.529Z,94449.66
2023-04-01T03:05:08.614Z,94443.38
2023-04-01T03:07:54.381Z,94441.00
2023-04-01T03:10:40.654Z,94439.31
2023-04-01T03:13:27.192Z,94432.69
2023-04-01T03:16:13.272Z,94415.97
2023-04-01T03:19:00.794Z,94424.88
2023-04-01T03:21:46.734Z,94412.00
2023-04-01T03:24:32.409Z,94414.28
2023-04-01T03:27:18.297Z,94419.72
2023-04-01T03:30:05.485Z,94421.97
2023-04-01T03:32:56.855Z,94412.53
2023-04-01T03:35:42.585Z,94415.59
2023-04-01T03:38:28.149Z,94399.22
2023-04-01T03:41:15.768Z,94385.25
2023-04-01T03:44:03.242Z,94391.00
2023-04-01T03:46:48.861Z,94392.06
2023-04-01T03:49:35.369Z,94372.56
2023-04-01T03:52:21.651Z,94370.25
2023-04-01T03:55:08.005Z,94361.78
2023-04-01T03:57:54.438Z,94371.84
2023-04-01T04:00:40.521Z,94381.91
2023-04-01T04:03:27.361Z,94359.41
2023-04-01T04:06:14.817Z,94350.94
2023-04-01T04:09:00.722Z,94342.34
2023-04-01T04:11:49.606Z,94342.34
2023-04-01T04:14:35.563Z,94330.38
2023-04-01T04:17:23.381Z,94324.59
2023-04-01T04:20:09.932Z,94340.09
2023-04-01T04:22:55.901Z,94328.91
2023-04-01T04:25:42.161Z,94342.00
2023-04-01T04:28:28.550Z,94336.94
2023-04-01T04:31:24.191Z,94344.66
2023-04-01T04:34:11.008Z,94344.22
2023-04-01T04:36:57.204Z,94346.91
2023-04-01T04:40:02.444Z,94335.28
2023-04-01T04:43:21.475Z,94343.06
2023-04-01T04:46:10.936Z,94323.38
2023-04-01T04:48:57.572Z,94328.09
2023-04-01T04:51:43.752Z,94321.53
2023-04-01T04:54:30.557Z,94331.69
2023-04-01T04:57:20.062Z,94325.38
2023-04-01T05:00:13.229Z,94321.81
2023-04-01T05:03:19.194Z,94315.97
2023-04-01T05:06:05.937Z,94308.97
2023-04-01T05:08:51.829Z,94301.97
2023-04-01T05:11:37.608Z,94308.88
2023-04-01T05:14:23.346Z,94310.09
2023-04-01T05:17:17.243Z,94303.09
2023-04-01T05:20:03.633Z,94287.28
2023-04-01T05:22:49.613Z,94287.28
2023-04-01T05:25:38.308Z,94278.00
2023-04-01T05:28:25.138Z,94267.41
2023-04-01T05:31:12.027Z,94267.41
2023-04-01T05:33:59.996Z,94267.16
2023-04-01T05:36:45.899Z,94261.66
2023-04-01T05:39:31.952Z,94305.13
2023-04-01T05:42:17.851Z,94281.94
2023-04-01T05:45:03.816Z,94269.78
2023-04-01T05:48:27.682Z,94267.91
2023-04-01T05:51:16.811Z,94271.66
2023-04-01T05:54:02.531Z,94267.72
2023-04-01T05:56:48.999Z,94278.31
2023-04-01T05:59:35.996Z,94269.44
2023-04-01T06:02:22.532Z,94259.09
2023-04-01T06:05:23.444Z,94261.38
2023-04-01T06:08:20.538Z,94257.44
2023-04-01T06:11:41.717Z,94242.59
2023-04-01T06:14:36.488Z,94248.88
2023-04-01T06:17:35.907Z,94244.22
2023-04-01T06:20:24.760Z,94252.03
2023-04-01T06:23:19.747Z,94249.75
2023-04-01T06:26:45.078Z,94241.16
2023-04-01T06:29:53.178Z,94254.38
2023-04-01T06:33:15.853Z,94245.09
2023-04-01T06:36:16.755Z,94266.81
2023-04-01T06:39:14.888Z,94253.69
2023-04-01T06:42:19.159Z,94247.47
2023-04-01T06:45:31.890Z,94222.69
2023-04-01T06:49:14.795Z,94206.47
2023-04-01T06:52:34.284Z,94223.91
2023-04-01T06:55:41.688Z,94222.75
2023-04-01T06:58:39.227Z,94224.31
2023-04-01T07:01:31.045Z,94238.31
2023-04-01T07:04:30.669Z,94222.13
2023-04-01T07:07:40.614Z,94228.91
2023-04-01T07:10:37.066Z,94209.91
2023-04-01T07:13:49.505Z,94221.63
2023-04-01T07:16:59.978Z,94230.19
2023-04-01T07:19:51.277Z,94225.53
2023-04-01T07:22:45.937Z,94226.28
2023-04-01T07:25:49.226Z,94230.63
2023-04-01T07:29:10.377Z,94234.56
2023-04-01T07:32:36.066Z,94239.53
2023-04-01T07:35:31.273Z,94234.34
2023-04-01T07:38:59.332Z,94240.13
2023-04-01T07:42:27.376Z,94242.34
2023-04-01T07:45:19.501Z,94215.78
2023-04-01T07:48:19.579Z,94234.09
2023-04-01T07:51:41.124Z,94211.00
2023-04-01T07:54:47.012Z,94238.84
2023-04-01T07:57:43.286Z,94233.84
2023-04-01T08:00:53.155Z,94242.59
2023-04-01T08:04:01.801Z,94241.25
2023-04-01T08:07:00.532Z,94241.63
2023-04-01T08:09:57.708Z,94244.97
2023-04-01T08:13:34.374Z,94249.03
2023-04-01T08:17:03.638Z,94225.47
2023-04-01T08:19:57.984Z,94241.34
2023-04-01T08:22:52.826Z,94240.03
2023-04-01T08:26:03.705Z,94244.09
2023-04-01T08:28:59.797Z,94252.47
2023-04-01T08:31:48.963Z,94239.53
2023-04-01T08:34:39.465Z,94235.44
2023-04-01T08:37:33.277Z,94243.97
2023-04-01T08:40:38.778Z,94255.56
2023-04-01T08:43:37.109Z,94265.53
2023-04-01T08:46:54.091Z,94281.66
2023-04-01T08:50:03.259Z,94300.91
2023-04-01T08:53:36.822Z,94294.97
2023-04-01T08:57:20.484Z,94309.66
2023-04-01T09:00:33.937Z,94287.25
2023-04-01T09:03:45.720Z,94290.47
2023-04-01T09:06:36.856Z,94284.56
2023-04-01T09:09:33.395Z,94275.28
2023-04-01T09:12:27.392Z,94247.38
2023-04-01T09:15:35.114Z,94081.72
2023-04-01T09:18:35.597Z,94125.34
2023-04-01T09:22:00.383Z,94184.69
2023-04-01T09:25:05.999Z,94245.75
2023-04-01T09:28:18.228Z,94244.13
2023-04-01T09:31:26.181Z,94256.13
2023-04-01T09:35:08.298Z,94251.59
2023-04-01T09:38:10.120Z,94274.63
2023-04-01T09:41:12.863Z,94265.06
2023-04-01T09:44:24.649Z,94250.47
2023-04-01T09:48:04.288Z,94223.88
2023-04-01T09:51:29.046Z,94200.75
2023-04-01T09:54:32.180Z,94204.84
2023-04-01T09:57:30.274Z,94214.41
2023-04-01T10:01:00.534Z,94220.81
2023-04-01T10:04:17.903Z,94212.75
2023-04-01T10:07:26.866Z,94214.59
2023-04-01T10:10:25.102Z,94212.84
2023-04-01T10:13:42.134Z,94207.53
2023-04-01T10:16:58.503Z,94211.59
2023-04-01T10:20:20.325Z,94211.34
2023-04-01T10:23:12.992Z,94220.09
2023-04-01T10:26:29.598Z,94221.16
2023-04-01T10:30:02.664Z,94224.56
2023-04-01T10:33:28.023Z,94224.22
2023-04-01T10:36:59.095Z,94214.16
2023-04-01T10:40:35.865Z,94216.28
2023-04-01T10:43:40.808Z,94218.56
2023-04-01T10:46:37.066Z,94219.34
2023-04-01T10:49:29.968Z,94222.41
2023-04-01T10:52:54.371Z,94221.53
2023-04-01T10:56:51.552Z,94213.81
2023-04-01T11:00:02.055Z,94193.72
2023-04-01T11:03:22.584Z,94181.31
2023-04-01T11:06:21.727Z,94131.81
2023-04-01T11:09:20.409Z,94109.09
2023-04-01T11:12:39.589Z,94118.06
2023-04-01T11:15:47.317Z,94112.88
2023-04-01T11:19:03.754Z,94113.06
2023-04-01T11:22:15.730Z,94113.75
2023-04-01T11:25:13.019Z,94111.03
2023-04-01T11:28:11.664Z,94120.34
2023-04-01T11:31:04.022Z,94121.84
2023-04-01T11:34:18.608Z,94110.28
2023-04-01T11:37:13.394Z,94111.16
2023-04-01T11:40:24.636Z,94112.31
2023-04-01T11:43:34.016Z,94114.44
2023-04-01T11:47:36.341Z,94124.44
2023-04-01T11:50:28.823Z,94134.94
2023-04-01T11:53:39.558Z,94129.25
2023-04-01T11:56:28.303Z,94127.19
2023-04-01T11:59:41.338Z,94130.81
2023-04-01T12:03:02.764Z,94137.22
2023-04-01T12:05:56.611Z,94126.47
2023-04-01T12:09:16.415Z,94110.31
2023-04-01T12:12:19.467Z,94108.13
2023-04-01T12:15:54.796Z,94103.88
2023-04-01T12:18:51.548Z,94091.75
2023-04-01T12:21:38.207Z,94094.09
2023-04-01T12:24:31.099Z,94091.00
2023-04-01T12:27:39.234Z,94085.44
2023-04-01T12:30:34.951Z,94094.81
2023-04-01T12:33:43.372Z,94092.53
2023-04-01T12:37:02.368Z,94096.47
2023-04-01T12:40:03.953Z,94092.91
2023-04-01T12:43:14.833Z,94091.66
2023-04-01T12:46:07.218Z,94087.63
2023-04-01T12:49:18.121Z,94087.91
2023-04-01T12:52:13.473Z,94082.31
2023-04-01T12:55:24.511Z,94090.34
2023-04-01T12:58:49.409Z,94094.88
2023-04-01T13:01:53.760Z,94104.88
2023-04-01T13:04:53.047Z,94097.81
2023-04-01T13:07:51.351Z,94143.28
2023-04-01T13:11:20.286Z,94141.88
2023-04-01T13:14:44.018Z,94147.53
2023-04-01T13:17:31.844Z,94164.91
2023-04-01T13:20:22.234Z,94175.25
2023-04-01T13:23:17.325Z,94181.34
2023-04-01T13:26:27.472Z,94200.16
2023-04-01T13:29:23.063Z,94221.75
2023-04-01T13:35:56.225Z,94227.91
2023-04-01T13:39:16.230Z,94241.75
2023-04-01T13:42:35.640Z,94229.41
2023-04-01T13:45:28.941Z,94250.78
2023-04-01T13:48:15.208Z,94253.66
2023-04-01T13:51:43.063Z,94265.34
2023-04-01T13:54:43.755Z,94256.97
2023-04-01T13:58:04.337Z,94266.22
2023-04-01T14:01:08.902Z,94272.84
2023-04-01T14:04:22.740Z,94266.06
2023-04-01T14:07:27.301Z,94259.81
2023-04-01T14:10:30.904Z,94258.34
2023-04-01T14:13:41.018Z,94268.38
2023-04-01T14:16:51.608Z,94270.25
2023-04-01T14:19:37.753Z,94261.38
2023-04-01T14:22:56.088Z,94272.38
2023-04-01T14:26:19.319Z,94284.97
2023-04-01T14:29:29.862Z,94279.50
2023-04-01T14:32:47.746Z,94287.31
2023-04-01T14:35:42.581Z,94281.56
2023-04-01T14:39:01.620Z,94299.03
2023-04-01T14:42:29.096Z,94305.13
2023-04-01T14:45:24.147Z,94325.59
2023-04-01T14:48:26.301Z,94330.34
2023-04-01T14:51:29.606Z,94325.47
2023-04-01T14:54:34.452Z,94343.47
2023-04-01T14:57:30.949Z,94356.56
2023-04-01T15:00:20.492Z,94354.97
2023-04-01T15:03:21.288Z,94366.53
2023-04-01T15:06:34.231Z,94376.16
2023-04-01T15:09:46.664Z,94376.41
2023-04-01T15:12:45.724Z,94378.28
2023-04-01T15:15:51.446Z,94386.44
2023-04-01T15:18:38.436Z,94394.84
2023-04-01T15:21:44.876Z,94392.28
2023-04-01T15:24:54.610Z,94395.25
2023-04-01T15:27:53.576Z,94393.53
2023-04-01T15:30:49.421Z,94394.47
2023-04-01T15:33:38.576Z,94385.31
2023-04-01T15:36:36.762Z,94388.88
2023-04-01T15:39:33.472Z,94382.44
2023-04-01T15:42:32.086Z,94391.94
2023-04-01T15:45:40.117Z,94387.69
2023-04-01T15:48:38.864Z,94381.88
2023-04-01T15:52:03.349Z,94397.13
2023-04-01T15:54:58.410Z,94395.97
2023-04-01T15:58:22.079Z,94401.88
2023-04-01T16:01:59.156Z,94403.81
2023-04-01T16:05:01.893Z,94422.78
2023-04-01T16:08:02.906Z,94428.22
2023-04-01T16:11:14.359Z,94436.59
2023-04-01T16:14:35.772Z,94449.00
2023-04-01T16:17:42.896Z,94459.81
2023-04-01T16:20:47.896Z,94459.22
2023-04-01T16:23:39.466Z,94476.91
2023-04-01T16:26:38.670Z,94481.56
2023-04-01T16:29:48.547Z,94488.25
2023-04-01T16:32:42.931Z,94486.00
2023-04-01T16:35:43.903Z,94493.97
2023-04-01T16:38:51.412Z,94506.28
2023-04-01T16:42:04.186Z,94510.69
2023-04-01T16:44:57.653Z,94500.03
2023-04-01T16:47:49.137Z,94511.72
2023-04-01T16:50:59.455Z,94511.75
2023-04-01T16:53:49.739Z,94516.19
2023-04-01T16:57:04.807Z,94519.25
2023-04-01T17:00:23.773Z,94513.19
2023-04-01T17:03:40.022Z,94516.00
2023-04-01T17:06:35.179Z,94518.84
2023-04-01T17:09:42.376Z,94524.16
2023-04-01T17:13:05.359Z,94531.69
2023-04-01T17:16:20.924Z,94539.25
2023-04-01T17:19:16.366Z,94537.56
2023-04-01T17:22:22.238Z,94544.44
2023-04-01T17:25:39.448Z,94552.22
2023-04-01T17:28:37.466Z,94555.56
2023-04-01T17:31:56.001Z,94562.34
2023-04-01T17:35:11.522Z,94571.56
2023-04-01T17:38:41.759Z,94576.16
2023-04-01T17:41:46.086Z,94578.31
2023-04-01T17:44:53.719Z,94590.91
2023-04-01T17:48:06.659Z,94575.22
2023-04-01T17:51:12.858Z,94586.38
2023-04-01T17:54:17.454Z,94590.84
2023-04-01T17:57:29.937Z,94596.81
2023-04-01T18:00:53.032Z,94599.59
2023-04-01T18:03:43.113Z,94605.53
2023-04-01T18:06:55.015Z,94610.34
2023-04-01T18:10:19.232Z,94614.84
2023-04-01T18:13:23.361Z,94627.44
2023-04-01T18:16:21.717Z,94628.56
2023-04-01T18:19:37.018Z,94632.56
2023-04-01T18:22:45.010Z,94637.16
2023-04-01T18:25:38.334Z,94632.56
2023-04-01T18:28:31.399Z,94634.78
2023-04-01T18:31:20.763Z,94639.41
2023-04-01T18:34:42.657Z,94639.41
2023-04-01T18:37:28.554Z,94642.25
2023-04-01T18:40:26.602Z,94651.28
2023-04-01T18:43:18.466Z,94647.47
2023-04-01T18:46:22.476Z,94653.53
2023-04-01T18:49:09.095Z,94658.94
2023-04-01T18:51:58.625Z,94665.63
2023-04-01T18:55:11.186Z,94673.94
2023-04-01T18:58:20.159Z,94662.56
2023-04-01T19:01:27.009Z,94672.78
2023-04-01T19:04:15.871Z,94665.97
2023-04-01T19:07:23.464Z,94674.25
2023-04-01T19:10:21.632Z,94672.38
2023-04-01T19:13:25.579Z,94672.88
2023-04-01T19:16:32.926Z,94686.75
2023-04-01T19:19:49.659Z,94691.88
2023-04-01T19:23:25.196Z,94693.47
2023-04-01T19:26:36.740Z,94704.13
2023-04-01T19:29:41.451Z,94702.22
2023-04-01T19:32:42.640Z,94688.75
2023-04-01T19:35:51.247Z,94696.25
2023-04-01T19:38:43.429Z,94685.00
2023-04-01T19:41:38.798Z,94684.06
2023-04-01T19:45:20.623Z,94685.34
2023-04-01T19:48:39.684Z,94692.16
2023-04-01T19:51:28.549Z,94695.03
2023-04-01T19:54:36.669Z,94684.72
2023-04-01T19:57:22.543Z,94697.56
2023-04-01T20:00:32.740Z,94687.09
2023-04-01T20:03:36.728Z,94689.91
2023-04-01T20:06:37.841Z,94691.50
2023-04-01T20:09:32.979Z,94694.81
2023-04-01T20:12:41.700Z,94697.34
2023-04-01T20:15:38.109Z,94700.66
2023-04-01T20:18:35.804Z,94686.22
2023-04-01T20:21:37.916Z,94702.53
2023-04-01T20:24:32.049Z,94697.78
2023-04-01T20:27:24.782Z,94705.03
2023-04-01T20:30:39.908Z,94703.75
2023-04-01T20:33:49.045Z,94702.50
2023-04-01T20:36:45.944Z,94690.13
2023-04-01T20:39:59.372Z,94693.63
2023-04-01T20:43:03.727Z,94691.19
2023-04-01T20:46:17.653Z,94691.94
2023-04-01T20:49:25.287Z,94700.78
2023-04-01T20:52:14.371Z,94699.00
2023-04-01T20:55:21.130Z,94707.72
2023-04-01T20:58:19.295Z,94710.72
2023-04-01T21:01:31.875Z,94717.69
2023-04-01T21:05:03.139Z,94714.06
2023-04-01T21:07:50.586Z,94706.34
2023-04-01T21:10:54.982Z,94713.16
2023-04-01T21:14:12.772Z,94705.91
2023-04-01T21:17:14.332Z,94712.88
2023-04-01T21:20:39.586Z,94716.66
2023-04-01T21:23:47.626Z,94721.56
2023-04-01T21:27:02.004Z,94713.31
2023-04-01T21:29:55.229Z,94716.94
2023-04-01T21:32:55.455Z,94717.13
2023-04-01T21:35:57.766Z,94714.72
2023-04-01T21:39:01.147Z,94713.13
2023-04-01T21:41:53.817Z,94708.88
2023-04-01T21:45:04.566Z,94709.78
2023-04-01T21:48:16.585Z,94717.19
2023-04-01T21:51:27.235Z,94714.50
2023-04-01T21:54:34.775Z,94700.09
2023-04-01T21:57:38.845Z,94698.50
2023-04-01T22:00:31.221Z,94700.66
2023-04-01T22:03:39.359Z,94704.75
2023-04-01T22:06:38.058Z,94712.66
2023-04-01T22:10:03.207Z,94703.91
2023-04-01T22:12:57.896Z,94702.47
2023-04-01T22:15:43.536Z,94713.22
2023-04-01T22:18:35.855Z,94703.06
2023-04-01T22:21:34.957Z,94703.69
2023-04-01T22:24:36.467Z,94710.03
2023-04-01T22:27:32.524Z,94709.44
2023-04-01T22:30:25.584Z,94708.03
2023-04-01T22:33:17.864Z,94720.53
2023-04-01T22:36:19.290Z,94715.94
2023-04-01T22:39:16.663Z,94713.56
2023-04-01T22:42:31.772Z,94718.00
2023-04-01T22:45:59.404Z,94719.41
2023-04-01T22:48:53.241Z,94720.31
2023-04-01T22:51:48.357Z,94730.69
2023-04-01T22:54:56.331Z,94725.44
2023-04-01T22:58:01.789Z,94725.88
2023-04-01T23:00:51.186Z,94720.31
2023-04-01T23:03:42.549Z,94723.44
2023-04-01T23:06:32.965Z,94725.94
2023-04-01T23:09:22.254Z,94728.09
2023-04-01T23:12:20.058Z,94739.47
2023-04-01T23:15:06.839Z,94728.94
2023-04-01T23:18:14.581Z,94734.53
2023-04-01T23:21:27.921Z,94731.09
2023-04-01T23:24:43.267Z,94741.06
2023-04-01T23:27:40.366Z,94737.00
2023-04-01T23:30:41.679Z,94724.78
2023-04-01T23:33:31.572Z,94722.69
2023-04-01T23:36:17.216Z,94724.88
2023-04-01T23:39:07.017Z,94719.63
2023-04-01T23:41:55.638Z,94723.88
2023-04-01T23:44:42.400Z,94715.94
2023-04-01T23:47:35.666Z,94724.50
2023-04-01T23:50:25.486Z,94736.03
2023-04-01T23:53:22.486Z,94725.50
2023-04-01T23:56:08.365Z,94728.56
2023-04-01T23:58:57.789Z,94731.84
